sensor_id;sensor_type;location;lat;lon;timestamp;P1;durP1;ratioP1;P2;durP2;ratioP2
28459;SDS011;32528;45.712;9.192;2023-02-28T00:00:40;12.65;;;7.53;;
28459;SDS011;32528;45.712;9.192;2023-02-28T00:02:42;14.23;;;8.20;;
28459;SDS011;32528;45.712;9.192;2023-02-28T00:04:43;11.23;;;6.95;;
28459;SDS011;32528;45.712;9.192;2023-02-28T00:06:44;14.70;;;7.38;;
28459;SDS011;32528;45.712;9.192;2023-02-28T00:08:45;14.80;;;7.97;;
28459;SDS011;32528;45.712;9.192;2023-02-28T00:10:45;16.00;;;8.15;;
28459;SDS011;32528;45.712;9.192;2023-02-28T00:12:47;14.80;;;8.23;;
28459;SDS011;32528;45.712;9.192;2023-02-28T00:14:48;14.20;;;7.22;;
28459;SDS011;32528;45.712;9.192;2023-02-28T00:16:49;16.80;;;8.15;;
28459;SDS011;32528;45.712;9.192;2023-02-28T00:18:50;12.65;;;6.65;;
28459;SDS011;32528;45.712;9.192;2023-02-28T00:20:51;14.63;;;7.78;;
28459;SDS011;32528;45.712;9.192;2023-02-28T00:22:52;10.57;;;6.70;;
28459;SDS011;32528;45.712;9.192;2023-02-28T00:24:53;14.48;;;6.50;;
28459;SDS011;32528;45.712;9.192;2023-02-28T00:26:53;14.52;;;7.47;;
28459;SDS011;32528;45.712;9.192;2023-02-28T00:28:54;12.45;;;7.15;;
28459;SDS011;32528;45.712;9.192;2023-02-28T00:30:56;12.70;;;7.38;;
28459;SDS011;32528;45.712;9.192;2023-02-28T00:32:57;11.73;;;7.07;;
28459;SDS011;32528;45.712;9.192;2023-02-28T00:34:59;13.15;;;7.28;;
28459;SDS011;32528;45.712;9.192;2023-02-28T00:37:00;9.15;;;6.10;;
28459;SDS011;32528;45.712;9.192;2023-02-28T00:39:00;11.38;;;6.40;;
28459;SDS011;32528;45.712;9.192;2023-02-28T00:41:02;12.20;;;7.93;;
28459;SDS011;32528;45.712;9.192;2023-02-28T00:43:04;18.52;;;7.88;;
28459;SDS011;32528;45.712;9.192;2023-02-28T00:45:05;17.17;;;8.07;;
28459;SDS011;32528;45.712;9.192;2023-02-28T00:47:06;16.85;;;7.00;;
28459;SDS011;32528;45.712;9.192;2023-02-28T00:49:07;11.73;;;7.18;;
28459;SDS011;32528;45.712;9.192;2023-02-28T00:51:09;12.93;;;7.65;;
28459;SDS011;32528;45.712;9.192;2023-02-28T00:53:10;10.95;;;6.93;;
28459;SDS011;32528;45.712;9.192;2023-02-28T00:55:10;10.07;;;6.05;;
28459;SDS011;32528;45.712;9.192;2023-02-28T00:57:12;13.48;;;7.47;;
28459;SDS011;32528;45.712;9.192;2023-02-28T00:59:14;12.63;;;7.30;;
28459;SDS011;32528;45.712;9.192;2023-02-28T01:01:16;19.05;;;7.10;;
28459;SDS011;32528;45.712;9.192;2023-02-28T01:03:18;19.08;;;8.23;;
28459;SDS011;32528;45.712;9.192;2023-02-28T01:05:20;12.68;;;8.13;;
28459;SDS011;32528;45.712;9.192;2023-02-28T01:07:20;14.80;;;7.28;;
28459;SDS011;32528;45.712;9.192;2023-02-28T01:09:21;12.52;;;8.15;;
28459;SDS011;32528;45.712;9.192;2023-02-28T01:13:23;13.63;;;8.25;;
28459;SDS011;32528;45.712;9.192;2023-02-28T01:15:25;10.93;;;7.68;;
28459;SDS011;32528;45.712;9.192;2023-02-28T01:17:26;15.82;;;9.15;;
28459;SDS011;32528;45.712;9.192;2023-02-28T01:19:26;14.73;;;9.20;;
28459;SDS011;32528;45.712;9.192;2023-02-28T01:21:27;14.35;;;8.57;;
28459;SDS011;32528;45.712;9.192;2023-02-28T01:23:29;14.65;;;8.27;;
28459;SDS011;32528;45.712;9.192;2023-02-28T01:25:30;16.25;;;8.65;;
28459;SDS011;32528;45.712;9.192;2023-02-28T01:27:31;12.88;;;8.05;;
28459;SDS011;32528;45.712;9.192;2023-02-28T01:29:32;11.00;;;7.07;;
28459;SDS011;32528;45.712;9.192;2023-02-28T01:31:32;15.77;;;8.88;;
28459;SDS011;32528;45.712;9.192;2023-02-28T01:33:33;11.18;;;7.25;;
28459;SDS011;32528;45.712;9.192;2023-02-28T01:35:35;10.82;;;6.85;;
28459;SDS011;32528;45.712;9.192;2023-02-28T01:37:36;13.38;;;7.60;;
28459;SDS011;32528;45.712;9.192;2023-02-28T01:45:42;12.13;;;8.07;;
28459;SDS011;32528;45.712;9.192;2023-02-28T02:00:06;13.40;;;6.20;;
28459;SDS011;32528;45.712;9.192;2023-02-28T02:02:13;14.75;;;7.88;;
28459;SDS011;32528;45.712;9.192;2023-02-28T02:04:14;13.30;;;7.13;;
28459;SDS011;32528;45.712;9.192;2023-02-28T02:06:19;13.60;;;7.38;;
28459;SDS011;32528;45.712;9.192;2023-02-28T02:08:21;15.35;;;7.97;;
28459;SDS011;32528;45.712;9.192;2023-02-28T02:15:21;12.38;;;7.03;;
28459;SDS011;32528;45.712;9.192;2023-02-28T02:17:45;13.65;;;7.18;;
28459;SDS011;32528;45.712;9.192;2023-02-28T02:22:39;16.27;;;7.95;;
28459;SDS011;32528;45.712;9.192;2023-02-28T02:32:30;19.85;;;8.32;;
28459;SDS011;32528;45.712;9.192;2023-02-28T02:34:57;22.33;;;9.10;;
28459;SDS011;32528;45.712;9.192;2023-02-28T02:37:14;17.65;;;9.77;;
28459;SDS011;32528;45.712;9.192;2023-02-28T02:39:28;17.13;;;8.05;;
28459;SDS011;32528;45.712;9.192;2023-02-28T02:41:39;15.95;;;7.55;;
28459;SDS011;32528;45.712;9.192;2023-02-28T02:44:10;14.10;;;8.10;;
28459;SDS011;32528;45.712;9.192;2023-02-28T02:46:25;16.25;;;7.20;;
28459;SDS011;32528;45.712;9.192;2023-02-28T02:48:34;14.00;;;8.20;;
28459;SDS011;32528;45.712;9.192;2023-02-28T02:50:38;13.88;;;7.60;;
28459;SDS011;32528;45.712;9.192;2023-02-28T02:52:45;20.90;;;8.40;;
28459;SDS011;32528;45.712;9.192;2023-02-28T02:54:52;15.40;;;7.35;;
28459;SDS011;32528;45.712;9.192;2023-02-28T02:56:59;16.67;;;9.07;;
28459;SDS011;32528;45.712;9.192;2023-02-28T02:59:04;16.98;;;8.45;;
28459;SDS011;32528;45.712;9.192;2023-02-28T03:01:10;14.20;;;7.97;;
28459;SDS011;32528;45.712;9.192;2023-02-28T03:03:14;15.82;;;7.65;;
28459;SDS011;32528;45.712;9.192;2023-02-28T03:05:25;15.48;;;7.40;;
28459;SDS011;32528;45.712;9.192;2023-02-28T03:07:30;18.55;;;7.07;;
28459;SDS011;32528;45.712;9.192;2023-02-28T03:09:32;15.65;;;7.68;;
28459;SDS011;32528;45.712;9.192;2023-02-28T03:11:35;14.65;;;8.15;;
28459;SDS011;32528;45.712;9.192;2023-02-28T03:15:58;16.33;;;7.50;;
28459;SDS011;32528;45.712;9.192;2023-02-28T03:18:08;12.25;;;7.32;;
28459;SDS011;32528;45.712;9.192;2023-02-28T03:20:57;17.23;;;8.90;;
28459;SDS011;32528;45.712;9.192;2023-02-28T03:29:34;15.60;;;8.43;;
28459;SDS011;32528;45.712;9.192;2023-02-28T03:31:44;19.13;;;8.30;;
28459;SDS011;32528;45.712;9.192;2023-02-28T03:33:58;18.40;;;8.48;;
28459;SDS011;32528;45.712;9.192;2023-02-28T03:36:13;14.32;;;8.00;;
28459;SDS011;32528;45.712;9.192;2023-02-28T03:38:20;12.57;;;7.75;;
28459;SDS011;32528;45.712;9.192;2023-02-28T03:40:36;20.83;;;11.50;;
28459;SDS011;32528;45.712;9.192;2023-02-28T03:42:39;17.23;;;8.88;;
28459;SDS011;32528;45.712;9.192;2023-02-28T03:44:44;14.70;;;8.25;;
28459;SDS011;32528;45.712;9.192;2023-02-28T03:46:52;12.85;;;8.32;;
28459;SDS011;32528;45.712;9.192;2023-02-28T03:51:12;15.15;;;8.07;;
28459;SDS011;32528;45.712;9.192;2023-02-28T03:53:22;11.82;;;7.65;;
28459;SDS011;32528;45.712;9.192;2023-02-28T03:55:32;15.50;;;9.13;;
28459;SDS011;32528;45.712;9.192;2023-02-28T03:57:40;20.25;;;8.82;;
28459;SDS011;32528;45.712;9.192;2023-02-28T03:59:56;25.58;;;9.93;;
28459;SDS011;32528;45.712;9.192;2023-02-28T04:02:12;23.27;;;11.15;;
28459;SDS011;32528;45.712;9.192;2023-02-28T04:04:13;24.53;;;11.93;;
28459;SDS011;32528;45.712;9.192;2023-02-28T04:06:17;22.25;;;10.73;;
28459;SDS011;32528;45.712;9.192;2023-02-28T04:08:20;18.73;;;11.07;;
28459;SDS011;32528;45.712;9.192;2023-02-28T04:10:22;23.50;;;10.65;;
28459;SDS011;32528;45.712;9.192;2023-02-28T04:12:23;16.80;;;10.00;;
28459;SDS011;32528;45.712;9.192;2023-02-28T04:14:26;11.93;;;8.15;;
28459;SDS011;32528;45.712;9.192;2023-02-28T04:16:26;23.20;;;10.23;;
28459;SDS011;32528;45.712;9.192;2023-02-28T04:18:27;21.13;;;9.18;;
28459;SDS011;32528;45.712;9.192;2023-02-28T04:20:28;21.88;;;8.65;;
28459;SDS011;32528;45.712;9.192;2023-02-28T04:22:29;18.88;;;9.10;;
28459;SDS011;32528;45.712;9.192;2023-02-28T04:24:29;13.43;;;7.97;;
28459;SDS011;32528;45.712;9.192;2023-02-28T04:26:31;17.67;;;8.60;;
28459;SDS011;32528;45.712;9.192;2023-02-28T04:28:36;15.73;;;8.32;;
28459;SDS011;32528;45.712;9.192;2023-02-28T04:30:38;17.83;;;9.70;;
28459;SDS011;32528;45.712;9.192;2023-02-28T04:32:39;20.38;;;10.60;;
28459;SDS011;32528;45.712;9.192;2023-02-28T04:34:40;15.65;;;8.75;;
28459;SDS011;32528;45.712;9.192;2023-02-28T04:36:40;19.05;;;9.57;;
28459;SDS011;32528;45.712;9.192;2023-02-28T04:38:43;16.45;;;9.45;;
28459;SDS011;32528;45.712;9.192;2023-02-28T04:40:45;16.42;;;8.50;;
28459;SDS011;32528;45.712;9.192;2023-02-28T04:42:45;16.38;;;9.10;;
28459;SDS011;32528;45.712;9.192;2023-02-28T04:44:46;19.80;;;9.45;;
28459;SDS011;32528;45.712;9.192;2023-02-28T04:46:47;18.73;;;9.90;;
28459;SDS011;32528;45.712;9.192;2023-02-28T04:48:49;21.10;;;8.40;;
28459;SDS011;32528;45.712;9.192;2023-02-28T04:50:50;17.35;;;9.60;;
28459;SDS011;32528;45.712;9.192;2023-02-28T04:52:51;16.48;;;9.75;;
28459;SDS011;32528;45.712;9.192;2023-02-28T04:54:51;14.60;;;9.68;;
28459;SDS011;32528;45.712;9.192;2023-02-28T04:56:52;25.10;;;8.73;;
28459;SDS011;32528;45.712;9.192;2023-02-28T04:58:53;21.90;;;10.10;;
28459;SDS011;32528;45.712;9.192;2023-02-28T05:01:00;17.40;;;9.10;;
28459;SDS011;32528;45.712;9.192;2023-02-28T05:03:03;16.90;;;9.80;;
28459;SDS011;32528;45.712;9.192;2023-02-28T05:05:04;20.98;;;11.27;;
28459;SDS011;32528;45.712;9.192;2023-02-28T05:09:06;16.27;;;9.70;;
28459;SDS011;32528;45.712;9.192;2023-02-28T05:15:17;23.88;;;9.75;;
28459;SDS011;32528;45.712;9.192;2023-02-28T05:17:17;19.42;;;10.30;;
28459;SDS011;32528;45.712;9.192;2023-02-28T05:19:18;19.58;;;10.18;;
28459;SDS011;32528;45.712;9.192;2023-02-28T05:21:25;22.23;;;11.00;;
28459;SDS011;32528;45.712;9.192;2023-02-28T05:23:26;21.27;;;9.75;;
28459;SDS011;32528;45.712;9.192;2023-02-28T05:25:28;16.00;;;8.25;;
28459;SDS011;32528;45.712;9.192;2023-02-28T05:27:30;16.67;;;9.50;;
28459;SDS011;32528;45.712;9.192;2023-02-28T05:29:30;20.77;;;11.75;;
28459;SDS011;32528;45.712;9.192;2023-02-28T05:31:32;22.27;;;10.18;;
28459;SDS011;32528;45.712;9.192;2023-02-28T05:33:33;19.75;;;10.60;;
28459;SDS011;32528;45.712;9.192;2023-02-28T05:35:34;21.83;;;11.55;;
28459;SDS011;32528;45.712;9.192;2023-02-28T05:37:40;22.52;;;11.20;;
28459;SDS011;32528;45.712;9.192;2023-02-28T05:39:41;19.58;;;10.88;;
28459;SDS011;32528;45.712;9.192;2023-02-28T05:41:43;18.27;;;10.43;;
28459;SDS011;32528;45.712;9.192;2023-02-28T05:43:44;20.27;;;10.68;;
28459;SDS011;32528;45.712;9.192;2023-02-28T05:45:45;20.23;;;11.13;;
28459;SDS011;32528;45.712;9.192;2023-02-28T05:47:46;29.55;;;15.32;;
28459;SDS011;32528;45.712;9.192;2023-02-28T05:49:47;27.00;;;15.90;;
28459;SDS011;32528;45.712;9.192;2023-02-28T05:51:47;33.95;;;20.77;;
28459;SDS011;32528;45.712;9.192;2023-02-28T05:53:48;36.47;;;21.52;;
28459;SDS011;32528;45.712;9.192;2023-02-28T05:55:50;31.70;;;16.75;;
28459;SDS011;32528;45.712;9.192;2023-02-28T05:57:50;26.95;;;13.75;;
28459;SDS011;32528;45.712;9.192;2023-02-28T05:59:51;22.27;;;13.00;;
28459;SDS011;32528;45.712;9.192;2023-02-28T06:01:52;21.90;;;11.50;;
28459;SDS011;32528;45.712;9.192;2023-02-28T06:03:53;16.83;;;10.57;;
28459;SDS011;32528;45.712;9.192;2023-02-28T06:05:54;22.48;;;10.68;;
28459;SDS011;32528;45.712;9.192;2023-02-28T06:07:56;15.38;;;9.40;;
28459;SDS011;32528;45.712;9.192;2023-02-28T06:09:56;20.02;;;10.93;;
28459;SDS011;32528;45.712;9.192;2023-02-28T06:13:59;17.20;;;11.52;;
28459;SDS011;32528;45.712;9.192;2023-02-28T06:16:01;23.30;;;9.63;;
28459;SDS011;32528;45.712;9.192;2023-02-28T06:18:01;14.82;;;9.07;;
28459;SDS011;32528;45.712;9.192;2023-02-28T06:20:02;17.13;;;10.38;;
28459;SDS011;32528;45.712;9.192;2023-02-28T06:22:05;19.63;;;11.65;;
28459;SDS011;32528;45.712;9.192;2023-02-28T06:24:05;18.58;;;10.63;;
28459;SDS011;32528;45.712;9.192;2023-02-28T06:26:07;24.23;;;11.52;;
28459;SDS011;32528;45.712;9.192;2023-02-28T06:28:07;25.75;;;10.98;;
28459;SDS011;32528;45.712;9.192;2023-02-28T06:30:09;22.77;;;10.93;;
28459;SDS011;32528;45.712;9.192;2023-02-28T06:32:11;17.35;;;10.82;;
28459;SDS011;32528;45.712;9.192;2023-02-28T06:34:11;16.25;;;10.55;;
28459;SDS011;32528;45.712;9.192;2023-02-28T06:36:13;20.75;;;10.32;;
28459;SDS011;32528;45.712;9.192;2023-02-28T06:38:15;17.38;;;10.18;;
28459;SDS011;32528;45.712;9.192;2023-02-28T06:40:16;20.08;;;10.68;;
28459;SDS011;32528;45.712;9.192;2023-02-28T06:42:17;17.17;;;9.15;;
28459;SDS011;32528;45.712;9.192;2023-02-28T06:44:18;16.77;;;9.90;;
28459;SDS011;32528;45.712;9.192;2023-02-28T06:46:19;24.90;;;10.52;;
28459;SDS011;32528;45.712;9.192;2023-02-28T06:48:20;19.02;;;11.13;;
28459;SDS011;32528;45.712;9.192;2023-02-28T06:50:21;17.55;;;9.75;;
28459;SDS011;32528;45.712;9.192;2023-02-28T06:52:22;18.55;;;10.32;;
28459;SDS011;32528;45.712;9.192;2023-02-28T06:54:23;18.75;;;11.13;;
28459;SDS011;32528;45.712;9.192;2023-02-28T06:56:24;19.63;;;10.77;;
28459;SDS011;32528;45.712;9.192;2023-02-28T06:58:24;25.10;;;9.88;;
28459;SDS011;32528;45.712;9.192;2023-02-28T07:00:25;22.65;;;10.57;;
28459;SDS011;32528;45.712;9.192;2023-02-28T07:02:27;20.00;;;10.23;;
28459;SDS011;32528;45.712;9.192;2023-02-28T07:04:28;15.25;;;9.50;;
28459;SDS011;32528;45.712;9.192;2023-02-28T07:06:29;18.10;;;9.50;;
28459;SDS011;32528;45.712;9.192;2023-02-28T07:08:30;21.75;;;10.52;;
28459;SDS011;32528;45.712;9.192;2023-02-28T07:10:32;29.08;;;12.43;;
28459;SDS011;32528;45.712;9.192;2023-02-28T07:12:33;22.77;;;11.75;;
28459;SDS011;32528;45.712;9.192;2023-02-28T07:14:35;23.70;;;11.10;;
28459;SDS011;32528;45.712;9.192;2023-02-28T07:16:36;19.52;;;9.90;;
28459;SDS011;32528;45.712;9.192;2023-02-28T07:18:37;19.98;;;11.15;;
28459;SDS011;32528;45.712;9.192;2023-02-28T07:20:38;16.70;;;9.32;;
28459;SDS011;32528;45.712;9.192;2023-02-28T07:22:39;18.20;;;9.70;;
28459;SDS011;32528;45.712;9.192;2023-02-28T07:24:40;20.25;;;10.45;;
28459;SDS011;32528;45.712;9.192;2023-02-28T07:26:41;19.60;;;11.07;;
28459;SDS011;32528;45.712;9.192;2023-02-28T07:28:42;18.65;;;9.90;;
28459;SDS011;32528;45.712;9.192;2023-02-28T07:30:43;17.08;;;8.73;;
28459;SDS011;32528;45.712;9.192;2023-02-28T07:32:44;17.95;;;8.90;;
28459;SDS011;32528;45.712;9.192;2023-02-28T07:34:45;22.45;;;12.32;;
28459;SDS011;32528;45.712;9.192;2023-02-28T07:36:46;18.65;;;10.27;;
28459;SDS011;32528;45.712;9.192;2023-02-28T07:38:48;19.85;;;11.13;;
28459;SDS011;32528;45.712;9.192;2023-02-28T07:40:49;18.05;;;10.65;;
28459;SDS011;32528;45.712;9.192;2023-02-28T07:42:51;19.02;;;10.43;;
28459;SDS011;32528;45.712;9.192;2023-02-28T07:44:52;20.75;;;11.20;;
28459;SDS011;32528;45.712;9.192;2023-02-28T07:46:53;18.45;;;11.13;;
28459;SDS011;32528;45.712;9.192;2023-02-28T07:48:54;19.92;;;10.27;;
28459;SDS011;32528;45.712;9.192;2023-02-28T07:50:59;18.20;;;10.73;;
28459;SDS011;32528;45.712;9.192;2023-02-28T07:53:01;17.98;;;11.15;;
28459;SDS011;32528;45.712;9.192;2023-02-28T07:55:02;17.65;;;11.95;;
28459;SDS011;32528;45.712;9.192;2023-02-28T07:57:04;20.35;;;11.68;;
28459;SDS011;32528;45.712;9.192;2023-02-28T07:59:05;21.67;;;10.93;;
28459;SDS011;32528;45.712;9.192;2023-02-28T08:01:09;16.92;;;10.77;;
28459;SDS011;32528;45.712;9.192;2023-02-28T08:03:13;17.17;;;9.23;;
28459;SDS011;32528;45.712;9.192;2023-02-28T09:42:26;21.17;;;11.50;;
28459;SDS011;32528;45.712;9.192;2023-02-28T09:44:32;25.05;;;13.23;;
28459;SDS011;32528;45.712;9.192;2023-02-28T09:46:40;22.52;;;13.68;;
28459;SDS011;32528;45.712;9.192;2023-02-28T09:48:45;23.50;;;12.48;;
28459;SDS011;32528;45.712;9.192;2023-02-28T09:50:49;25.88;;;14.13;;
28459;SDS011;32528;45.712;9.192;2023-02-28T09:52:54;22.73;;;12.68;;
28459;SDS011;32528;45.712;9.192;2023-02-28T09:54:55;19.75;;;12.35;;
28459;SDS011;32528;45.712;9.192;2023-02-28T10:05:58;34.50;;;11.75;;
28459;SDS011;32528;45.712;9.192;2023-02-28T10:08:18;19.60;;;12.30;;
28459;SDS011;32528;45.712;9.192;2023-02-28T10:10:37;21.30;;;11.80;;
28459;SDS011;32528;45.712;9.192;2023-02-28T10:12:55;18.08;;;11.32;;
28459;SDS011;32528;45.712;9.192;2023-02-28T10:14:58;20.05;;;12.32;;
28459;SDS011;32528;45.712;9.192;2023-02-28T10:17:12;18.75;;;11.40;;
28459;SDS011;32528;45.712;9.192;2023-02-28T10:21:59;17.38;;;12.10;;
28459;SDS011;32528;45.712;9.192;2023-02-28T10:24:16;21.70;;;12.43;;
28459;SDS011;32528;45.712;9.192;2023-02-28T10:26:39;21.92;;;12.52;;
28459;SDS011;32528;45.712;9.192;2023-02-28T10:28:44;16.77;;;11.25;;
28459;SDS011;32528;45.712;9.192;2023-02-28T10:30:46;17.10;;;11.60;;
28459;SDS011;32528;45.712;9.192;2023-02-28T10:32:50;21.40;;;12.02;;
28459;SDS011;32528;45.712;9.192;2023-02-28T10:37:10;21.48;;;11.38;;
28459;SDS011;32528;45.712;9.192;2023-02-28T10:41:42;23.25;;;13.32;;
28459;SDS011;32528;45.712;9.192;2023-02-28T10:43:43;19.73;;;12.50;;
28459;SDS011;32528;45.712;9.192;2023-02-28T10:45:58;27.25;;;14.32;;
28459;SDS011;32528;45.712;9.192;2023-02-28T10:50:04;31.13;;;12.60;;
28459;SDS011;32528;45.712;9.192;2023-02-28T10:52:07;18.42;;;11.90;;
28459;SDS011;32528;45.712;9.192;2023-02-28T10:54:19;18.42;;;12.13;;
28459;SDS011;32528;45.712;9.192;2023-02-28T10:56:24;20.42;;;12.68;;
28459;SDS011;32528;45.712;9.192;2023-02-28T10:58:26;23.42;;;12.48;;
28459;SDS011;32528;45.712;9.192;2023-02-28T11:00:35;24.65;;;13.52;;
28459;SDS011;32528;45.712;9.192;2023-02-28T11:04:38;18.92;;;12.02;;
28459;SDS011;32528;45.712;9.192;2023-02-28T11:06:40;25.02;;;13.35;;
28459;SDS011;32528;45.712;9.192;2023-02-28T11:08:44;20.35;;;11.70;;
28459;SDS011;32528;45.712;9.192;2023-02-28T11:10:58;26.08;;;11.15;;
28459;SDS011;32528;45.712;9.192;2023-02-28T11:13:01;20.27;;;12.77;;
28459;SDS011;32528;45.712;9.192;2023-02-28T11:15:04;22.35;;;14.90;;
28459;SDS011;32528;45.712;9.192;2023-02-28T11:17:22;22.08;;;15.02;;
28459;SDS011;32528;45.712;9.192;2023-02-28T11:19:25;19.25;;;12.48;;
28459;SDS011;32528;45.712;9.192;2023-02-28T11:21:32;23.05;;;14.95;;
28459;SDS011;32528;45.712;9.192;2023-02-28T11:23:39;20.13;;;13.82;;
28459;SDS011;32528;45.712;9.192;2023-02-28T11:25:45;21.63;;;12.73;;
28459;SDS011;32528;45.712;9.192;2023-02-28T11:27:59;21.25;;;12.25;;
28459;SDS011;32528;45.712;9.192;2023-02-28T11:30:02;26.90;;;14.63;;
28459;SDS011;32528;45.712;9.192;2023-02-28T11:34:25;26.00;;;13.73;;
28459;SDS011;32528;45.712;9.192;2023-02-28T11:36:28;18.70;;;11.90;;
28459;SDS011;32528;45.712;9.192;2023-02-28T11:38:32;20.50;;;13.63;;
28459;SDS011;32528;45.712;9.192;2023-02-28T11:56:55;16.63;;;10.85;;
28459;SDS011;32528;45.712;9.192;2023-02-28T12:07:49;27.25;;;16.08;;
28459;SDS011;32528;45.712;9.192;2023-02-28T12:16:26;21.92;;;12.07;;
28459;SDS011;32528;45.712;9.192;2023-02-28T12:21:18;23.58;;;15.35;;
28459;SDS011;32528;45.712;9.192;2023-02-28T12:28:21;19.27;;;12.75;;
28459;SDS011;32528;45.712;9.192;2023-02-28T12:30:33;21.80;;;13.15;;
28459;SDS011;32528;45.712;9.192;2023-02-28T12:32:47;21.48;;;13.63;;
28459;SDS011;32528;45.712;9.192;2023-02-28T12:34:57;22.73;;;13.77;;
28459;SDS011;32528;45.712;9.192;2023-02-28T12:37:04;25.80;;;14.30;;
28459;SDS011;32528;45.712;9.192;2023-02-28T12:39:26;25.75;;;14.45;;
28459;SDS011;32528;45.712;9.192;2023-02-28T12:41:39;19.10;;;12.50;;
28459;SDS011;32528;45.712;9.192;2023-02-28T12:43:55;22.95;;;13.68;;
28459;SDS011;32528;45.712;9.192;2023-02-28T12:46:07;26.15;;;13.70;;
28459;SDS011;32528;45.712;9.192;2023-02-28T12:48:25;23.13;;;13.45;;
28459;SDS011;32528;45.712;9.192;2023-02-28T12:50:26;21.92;;;14.43;;
28459;SDS011;32528;45.712;9.192;2023-02-28T12:54:53;21.95;;;12.88;;
28459;SDS011;32528;45.712;9.192;2023-02-28T13:04:55;23.73;;;12.57;;
28459;SDS011;32528;45.712;9.192;2023-02-28T13:13:45;25.98;;;13.43;;
28459;SDS011;32528;45.712;9.192;2023-02-28T13:16:03;22.15;;;12.95;;
28459;SDS011;32528;45.712;9.192;2023-02-28T13:18:20;22.98;;;13.32;;
28459;SDS011;32528;45.712;9.192;2023-02-28T13:20:37;19.98;;;12.60;;
28459;SDS011;32528;45.712;9.192;2023-02-28T13:22:49;21.73;;;12.65;;
28459;SDS011;32528;45.712;9.192;2023-02-28T13:24:53;22.75;;;12.65;;
28459;SDS011;32528;45.712;9.192;2023-02-28T13:29:01;20.75;;;13.55;;
28459;SDS011;32528;45.712;9.192;2023-02-28T13:31:11;25.55;;;13.38;;
28459;SDS011;32528;45.712;9.192;2023-02-28T13:33:26;20.85;;;12.40;;
28459;SDS011;32528;45.712;9.192;2023-02-28T13:35:34;18.92;;;13.30;;
28459;SDS011;32528;45.712;9.192;2023-02-28T13:37:41;20.40;;;12.55;;
28459;SDS011;32528;45.712;9.192;2023-02-28T13:39:45;21.10;;;12.85;;
28459;SDS011;32528;45.712;9.192;2023-02-28T13:41:48;25.30;;;12.63;;
28459;SDS011;32528;45.712;9.192;2023-02-28T13:46:10;23.17;;;14.23;;
28459;SDS011;32528;45.712;9.192;2023-02-28T13:48:19;22.85;;;13.73;;
28459;SDS011;32528;45.712;9.192;2023-02-28T13:52:26;25.10;;;15.30;;
28459;SDS011;32528;45.712;9.192;2023-02-28T13:56:40;27.95;;;13.75;;
28459;SDS011;32528;45.712;9.192;2023-02-28T13:59:06;23.98;;;12.38;;
28459;SDS011;32528;45.712;9.192;2023-02-28T14:03:55;23.10;;;14.02;;
28459;SDS011;32528;45.712;9.192;2023-02-28T14:08:18;22.08;;;13.20;;
28459;SDS011;32528;45.712;9.192;2023-02-28T14:10:23;17.80;;;11.95;;
28459;SDS011;32528;45.712;9.192;2023-02-28T14:15:39;28.52;;;13.57;;
28459;SDS011;32528;45.712;9.192;2023-02-28T14:17:40;30.02;;;13.57;;
28459;SDS011;32528;45.712;9.192;2023-02-28T14:19:43;22.60;;;13.95;;
28459;SDS011;32528;45.712;9.192;2023-02-28T14:24:30;21.20;;;12.75;;
28459;SDS011;32528;45.712;9.192;2023-02-28T14:36:04;23.95;;;12.98;;
28459;SDS011;32528;45.712;9.192;2023-02-28T14:38:23;20.88;;;13.27;;
28459;SDS011;32528;45.712;9.192;2023-02-28T14:40:30;21.02;;;14.00;;
28459;SDS011;32528;45.712;9.192;2023-02-28T14:42:36;22.75;;;13.77;;
28459;SDS011;32528;45.712;9.192;2023-02-28T14:44:53;22.50;;;12.63;;
28459;SDS011;32528;45.712;9.192;2023-02-28T14:46:59;20.88;;;13.18;;
28459;SDS011;32528;45.712;9.192;2023-02-28T14:49:07;20.42;;;13.23;;
28459;SDS011;32528;45.712;9.192;2023-02-28T14:51:22;21.30;;;13.43;;
28459;SDS011;32528;45.712;9.192;2023-02-28T14:53:26;30.02;;;13.43;;
28459;SDS011;32528;45.712;9.192;2023-02-28T14:55:33;27.50;;;14.32;;
28459;SDS011;32528;45.712;9.192;2023-02-28T14:57:39;24.25;;;13.88;;
28459;SDS011;32528;45.712;9.192;2023-02-28T15:00:33;18.95;;;11.85;;
28459;SDS011;32528;45.712;9.192;2023-02-28T15:02:16;21.20;;;12.93;;
28459;SDS011;32528;45.712;9.192;2023-02-28T15:04:24;21.05;;;11.68;;
28459;SDS011;32528;45.712;9.192;2023-02-28T15:06:33;25.45;;;13.57;;
28459;SDS011;32528;45.712;9.192;2023-02-28T15:08:34;23.85;;;11.85;;
28459;SDS011;32528;45.712;9.192;2023-02-28T15:10:37;19.05;;;10.85;;
28459;SDS011;32528;45.712;9.192;2023-02-28T15:12:50;16.98;;;11.23;;
28459;SDS011;32528;45.712;9.192;2023-02-28T15:14:56;23.77;;;12.55;;
28459;SDS011;32528;45.712;9.192;2023-02-28T15:16:58;20.10;;;12.38;;
28459;SDS011;32528;45.712;9.192;2023-02-28T15:21:49;19.80;;;10.98;;
28459;SDS011;32528;45.712;9.192;2023-02-28T15:23:59;19.90;;;11.90;;
28459;SDS011;32528;45.712;9.192;2023-02-28T15:26:04;17.33;;;11.77;;
28459;SDS011;32528;45.712;9.192;2023-02-28T15:28:12;20.95;;;12.57;;
28459;SDS011;32528;45.712;9.192;2023-02-28T15:30:20;20.80;;;12.07;;
28459;SDS011;32528;45.712;9.192;2023-02-28T15:32:29;22.90;;;13.13;;
28459;SDS011;32528;45.712;9.192;2023-02-28T15:34:37;23.55;;;14.32;;
28459;SDS011;32528;45.712;9.192;2023-02-28T15:36:39;20.08;;;12.93;;
28459;SDS011;32528;45.712;9.192;2023-02-28T15:38:40;20.08;;;12.55;;
28459;SDS011;32528;45.712;9.192;2023-02-28T15:40:45;23.08;;;13.18;;
28459;SDS011;32528;45.712;9.192;2023-02-28T15:45:27;24.23;;;12.63;;
28459;SDS011;32528;45.712;9.192;2023-02-28T15:47:32;22.20;;;12.75;;
28459;SDS011;32528;45.712;9.192;2023-02-28T15:49:38;21.40;;;13.75;;
28459;SDS011;32528;45.712;9.192;2023-02-28T15:51:44;25.52;;;13.90;;
28459;SDS011;32528;45.712;9.192;2023-02-28T15:58:26;25.08;;;13.20;;
28459;SDS011;32528;45.712;9.192;2023-02-28T16:00:28;21.35;;;13.10;;
28459;SDS011;32528;45.712;9.192;2023-02-28T16:02:36;20.55;;;12.90;;
28459;SDS011;32528;45.712;9.192;2023-02-28T16:04:53;22.00;;;12.82;;
28459;SDS011;32528;45.712;9.192;2023-02-28T16:09:10;20.60;;;12.58;;
28459;SDS011;32528;45.712;9.192;2023-02-28T16:11:13;23.08;;;16.20;;
28459;SDS011;32528;45.712;9.192;2023-02-28T16:13:14;23.60;;;14.57;;
28459;SDS011;32528;45.712;9.192;2023-02-28T16:15:19;22.85;;;15.13;;
28459;SDS011;32528;45.712;9.192;2023-02-28T16:17:27;20.08;;;13.27;;
28459;SDS011;32528;45.712;9.192;2023-02-28T16:19:31;26.48;;;16.02;;
28459;SDS011;32528;45.712;9.192;2023-02-28T16:21:32;23.48;;;12.88;;
28459;SDS011;32528;45.712;9.192;2023-02-28T16:23:33;22.85;;;14.52;;
28459;SDS011;32528;45.712;9.192;2023-02-28T16:25:35;19.55;;;13.90;;
28459;SDS011;32528;45.712;9.192;2023-02-28T16:29:41;20.00;;;12.48;;
28459;SDS011;32528;45.712;9.192;2023-02-28T16:31:43;28.57;;;16.03;;
28459;SDS011;32528;45.712;9.192;2023-02-28T16:33:44;26.95;;;15.35;;
28459;SDS011;32528;45.712;9.192;2023-02-28T16:35:45;32.42;;;20.77;;
28459;SDS011;32528;45.712;9.192;2023-02-28T16:37:46;25.40;;;17.23;;
28459;SDS011;32528;45.712;9.192;2023-02-28T16:39:49;28.77;;;18.52;;
28459;SDS011;32528;45.712;9.192;2023-02-28T16:41:51;30.95;;;17.13;;
28459;SDS011;32528;45.712;9.192;2023-02-28T16:43:53;34.50;;;15.77;;
28459;SDS011;32528;45.712;9.192;2023-02-28T16:45:58;30.70;;;16.20;;
28459;SDS011;32528;45.712;9.192;2023-02-28T16:48:01;43.55;;;17.48;;